Aviation Digital Data Service (ADDS)

Output produced by METARs form (0344 UTC 19 July 2018)
found at http://www.aviationweather.gov/adds/metars/
 
KRWF 190253Z AUTO 11006KT 10SM CLR 23/19 A2991 RMK AO2 SLP124 T02280194 58009
KMSP 190253Z 13008KT 10SM FEW100 BKN250 24/16 A2998 RMK AO2 SLP146 T02390156 55003